sensor_id;sensor_type;location;lat;lon;timestamp;pressure;altitude;pressure_sealevel;temperature;humidity
74613;BME280;63119;51.788;8.824;2024-02-14T00:00:44;100087.78;;;7.66;78.91
74613;BME280;63119;51.788;8.824;2024-02-14T00:03:09;100087.00;;;7.64;79.25
74613;BME280;63119;51.788;8.824;2024-02-14T00:05:34;100082.44;;;7.68;79.13
74613;BME280;63119;51.788;8.824;2024-02-14T00:08:00;100083.13;;;7.72;78.75
74613;BME280;63119;51.788;8.824;2024-02-14T00:10:25;100075.63;;;7.80;78.39
74613;BME280;63119;51.788;8.824;2024-02-14T00:12:50;100070.53;;;7.77;78.87
74613;BME280;63119;51.788;8.824;2024-02-14T00:15:16;100066.66;;;7.84;78.79
74613;BME280;63119;51.788;8.824;2024-02-14T00:17:41;100062.81;;;7.89;78.48
74613;BME280;63119;51.788;8.824;2024-02-14T00:20:07;100054.41;;;7.98;78.20
74613;BME280;63119;51.788;8.824;2024-02-14T00:22:32;100060.69;;;7.96;78.41
74613;BME280;63119;51.788;8.824;2024-02-14T00:24:57;100061.09;;;7.88;78.61
74613;BME280;63119;51.788;8.824;2024-02-14T00:27:23;100050.50;;;7.90;78.37
74613;BME280;63119;51.788;8.824;2024-02-14T00:29:49;100060.19;;;7.89;78.35
74613;BME280;63119;51.788;8.824;2024-02-14T00:32:15;100048.97;;;7.86;78.29
74613;BME280;63119;51.788;8.824;2024-02-14T00:34:40;100038.94;;;7.92;77.76
74613;BME280;63119;51.788;8.824;2024-02-14T00:37:06;100043.34;;;7.92;77.71
74613;BME280;63119;51.788;8.824;2024-02-14T00:39:31;100044.28;;;7.91;78.44
74613;BME280;63119;51.788;8.824;2024-02-14T00:41:57;100047.34;;;7.99;77.61
74613;BME280;63119;51.788;8.824;2024-02-14T00:44:22;100043.34;;;7.92;77.19
74613;BME280;63119;51.788;8.824;2024-02-14T00:46:48;100040.94;;;8.03;77.49
74613;BME280;63119;51.788;8.824;2024-02-14T00:49:14;100038.59;;;7.98;76.74
74613;BME280;63119;51.788;8.824;2024-02-14T00:51:39;100035.19;;;7.96;76.95
74613;BME280;63119;51.788;8.824;2024-02-14T00:54:08;100037.22;;;8.07;76.79
74613;BME280;63119;51.788;8.824;2024-02-14T00:56:33;100029.22;;;8.08;76.77
74613;BME280;63119;51.788;8.824;2024-02-14T00:58:59;100037.03;;;8.10;76.26
74613;BME280;63119;51.788;8.824;2024-02-14T01:01:24;100029.22;;;8.08;76.13
74613;BME280;63119;51.788;8.824;2024-02-14T01:03:50;100037.72;;;7.98;76.38
74613;BME280;63119;51.788;8.824;2024-02-14T01:06:16;100022.66;;;8.15;76.24
74613;BME280;63119;51.788;8.824;2024-02-14T01:08:41;100022.75;;;8.14;76.71
74613;BME280;63119;51.788;8.824;2024-02-14T01:11:10;100022.09;;;8.10;76.09
74613;BME280;63119;51.788;8.824;2024-02-14T01:13:35;100023.63;;;7.99;76.41
74613;BME280;63119;51.788;8.824;2024-02-14T01:16:00;100019.16;;;8.15;76.66
74613;BME280;63119;51.788;8.824;2024-02-14T01:18:26;100016.88;;;8.09;76.35
74613;BME280;63119;51.788;8.824;2024-02-14T01:20:51;100020.38;;;8.09;76.76
74613;BME280;63119;51.788;8.824;2024-02-14T01:23:16;100014.00;;;8.13;76.80
74613;BME280;63119;51.788;8.824;2024-02-14T01:25:41;100001.84;;;8.11;76.80
74613;BME280;63119;51.788;8.824;2024-02-14T01:28:07;100001.34;;;8.04;76.81
74613;BME280;63119;51.788;8.824;2024-02-14T01:30:33;100000.31;;;8.07;77.20
74613;BME280;63119;51.788;8.824;2024-02-14T01:33:00;100001.84;;;8.11;76.42
74613;BME280;63119;51.788;8.824;2024-02-14T01:35:25;100000.66;;;8.01;77.03
74613;BME280;63119;51.788;8.824;2024-02-14T01:37:51;99990.81;;;8.04;77.47
74613;BME280;63119;51.788;8.824;2024-02-14T01:40:17;99980.78;;;8.11;77.10
74613;BME280;63119;51.788;8.824;2024-02-14T01:42:42;99984.50;;;8.07;77.51
74613;BME280;63119;51.788;8.824;2024-02-14T01:45:08;99983.75;;;8.05;77.51
74613;BME280;63119;51.788;8.824;2024-02-14T01:47:33;99980.53;;;8.00;78.00
74613;BME280;63119;51.788;8.824;2024-02-14T01:50:00;99977.81;;;8.01;77.77
74613;BME280;63119;51.788;8.824;2024-02-14T01:52:26;99971.13;;;7.96;78.28
74613;BME280;63119;51.788;8.824;2024-02-14T01:54:51;99972.94;;;8.09;78.34
74613;BME280;63119;51.788;8.824;2024-02-14T01:57:18;99968.13;;;8.02;79.21
74613;BME280;63119;51.788;8.824;2024-02-14T01:59:44;99963.25;;;8.10;79.13
74613;BME280;63119;51.788;8.824;2024-02-14T02:02:10;99957.81;;;8.13;79.93
74613;BME280;63119;51.788;8.824;2024-02-14T02:04:35;99964.78;;;8.14;79.95
74613;BME280;63119;51.788;8.824;2024-02-14T02:07:01;99960.78;;;8.07;81.07
74613;BME280;63119;51.788;8.824;2024-02-14T02:09:26;99962.50;;;8.08;82.34
74613;BME280;63119;51.788;8.824;2024-02-14T02:11:52;99951.59;;;8.14;82.99
74613;BME280;63119;51.788;8.824;2024-02-14T02:14:19;99954.13;;;8.15;83.46
74613;BME280;63119;51.788;8.824;2024-02-14T02:16:45;99964.97;;;8.11;83.53
74613;BME280;63119;51.788;8.824;2024-02-14T02:19:11;99959.00;;;8.07;83.77
74613;BME280;63119;51.788;8.824;2024-02-14T02:21:37;99956.28;;;8.09;84.22
74613;BME280;63119;51.788;8.824;2024-02-14T02:24:02;99956.63;;;8.03;84.08
74613;BME280;63119;51.788;8.824;2024-02-14T02:26:28;99952.88;;;8.07;85.07
74613;BME280;63119;51.788;8.824;2024-02-14T02:28:53;99949.16;;;8.11;85.05
74613;BME280;63119;51.788;8.824;2024-02-14T02:31:19;99942.91;;;8.12;85.84
74613;BME280;63119;51.788;8.824;2024-02-14T02:33:45;99950.34;;;8.05;85.92
74613;BME280;63119;51.788;8.824;2024-02-14T02:36:10;99946.22;;;8.15;86.49
74613;BME280;63119;51.788;8.824;2024-02-14T02:38:36;99943.94;;;8.09;86.97
74613;BME280;63119;51.788;8.824;2024-02-14T02:41:02;99931.41;;;7.99;88.04
74613;BME280;63119;51.788;8.824;2024-02-14T02:43:27;99922.38;;;8.03;87.25
74613;BME280;63119;51.788;8.824;2024-02-14T02:45:53;99929.91;;;8.09;87.14
74613;BME280;63119;51.788;8.824;2024-02-14T02:48:18;99933.91;;;8.16;87.45
74613;BME280;63119;51.788;8.824;2024-02-14T02:50:48;99932.00;;;8.18;86.83
74613;BME280;63119;51.788;8.824;2024-02-14T02:53:14;99931.00;;;8.20;87.40
74613;BME280;63119;51.788;8.824;2024-02-14T02:55:40;99929.66;;;8.29;86.61
74613;BME280;63119;51.788;8.824;2024-02-14T02:58:05;99933.47;;;8.23;86.96
74613;BME280;63119;51.788;8.824;2024-02-14T03:00:31;99930.38;;;8.31;86.38
74613;BME280;63119;51.788;8.824;2024-02-14T03:02:56;99931.72;;;8.38;86.21
74613;BME280;63119;51.788;8.824;2024-02-14T03:05:22;99925.78;;;8.49;85.73
74613;BME280;63119;51.788;8.824;2024-02-14T03:07:48;99925.13;;;8.45;85.96
74613;BME280;63119;51.788;8.824;2024-02-14T03:10:15;99924.50;;;8.42;86.41
74613;BME280;63119;51.788;8.824;2024-02-14T03:12:47;99918.75;;;8.49;86.67
74613;BME280;63119;51.788;8.824;2024-02-14T03:15:12;99923.09;;;8.50;86.59
74613;BME280;63119;51.788;8.824;2024-02-14T03:17:38;99920.06;;;8.56;85.87
74613;BME280;63119;51.788;8.824;2024-02-14T03:20:04;99918.19;;;8.58;86.94
74613;BME280;63119;51.788;8.824;2024-02-14T03:22:35;99911.88;;;8.61;86.90
74613;BME280;63119;51.788;8.824;2024-02-14T03:25:00;99917.63;;;8.67;86.59
74613;BME280;63119;51.788;8.824;2024-02-14T03:27:26;99913.38;;;8.65;86.86
74613;BME280;63119;51.788;8.824;2024-02-14T03:29:52;99908.97;;;8.65;86.79
74613;BME280;63119;51.788;8.824;2024-02-14T03:32:17;99907.56;;;8.74;86.73
74613;BME280;63119;51.788;8.824;2024-02-14T03:34:42;99908.59;;;8.71;86.97
74613;BME280;63119;51.788;8.824;2024-02-14T03:37:08;99907.81;;;8.69;87.31
74613;BME280;63119;51.788;8.824;2024-02-14T03:39:33;99908.75;;;8.83;85.94
74613;BME280;63119;51.788;8.824;2024-02-14T03:41:58;99902.91;;;8.92;86.01
74613;BME280;63119;51.788;8.824;2024-02-14T03:44:27;99907.25;;;8.93;85.86
74613;BME280;63119;51.788;8.824;2024-02-14T03:46:53;99906.03;;;8.98;86.16
74613;BME280;63119;51.788;8.824;2024-02-14T03:49:18;99906.69;;;9.02;85.47
74613;BME280;63119;51.788;8.824;2024-02-14T03:51:44;99895.63;;;9.09;84.85
74613;BME280;63119;51.788;8.824;2024-02-14T03:54:10;99897.25;;;9.12;85.44
74613;BME280;63119;51.788;8.824;2024-02-14T03:56:36;99902.16;;;9.18;84.89
74613;BME280;63119;51.788;8.824;2024-02-14T03:59:02;99903.81;;;9.19;84.30
74613;BME280;63119;51.788;8.824;2024-02-14T04:01:30;99902.34;;;9.15;84.91
74613;BME280;63119;51.788;8.824;2024-02-14T04:03:56;99914.56;;;9.16;84.90
74613;BME280;63119;51.788;8.824;2024-02-14T04:06:21;99911.00;;;9.17;84.67
74613;BME280;63119;51.788;8.824;2024-02-14T04:08:46;99911.00;;;9.17;85.52
74613;BME280;63119;51.788;8.824;2024-02-14T04:11:12;99910.81;;;9.20;85.11
74613;BME280;63119;51.788;8.824;2024-02-14T04:13:38;99918.19;;;9.15;84.66
74613;BME280;63119;51.788;8.824;2024-02-14T04:16:04;99920.50;;;9.19;84.88
74613;BME280;63119;51.788;8.824;2024-02-14T04:18:29;99926.44;;;9.23;84.73
74613;BME280;63119;51.788;8.824;2024-02-14T04:20:54;99921.63;;;9.29;84.44
74613;BME280;63119;51.788;8.824;2024-02-14T04:23:19;99927.97;;;9.27;85.00
74613;BME280;63119;51.788;8.824;2024-02-14T04:25:45;99917.41;;;9.27;85.26
74613;BME280;63119;51.788;8.824;2024-02-14T04:28:10;99922.03;;;9.23;85.00
74613;BME280;63119;51.788;8.824;2024-02-14T04:30:37;99918.03;;;9.30;84.84
74613;BME280;63119;51.788;8.824;2024-02-14T04:33:03;99911.28;;;9.26;84.61
74613;BME280;63119;51.788;8.824;2024-02-14T04:35:30;99915.50;;;9.29;85.22
74613;BME280;63119;51.788;8.824;2024-02-14T04:37:55;99908.31;;;9.31;85.00
74613;BME280;63119;51.788;8.824;2024-02-14T04:40:20;99909.91;;;9.33;85.29
74613;BME280;63119;51.788;8.824;2024-02-14T04:42:46;99907.00;;;9.38;85.11
74613;BME280;63119;51.788;8.824;2024-02-14T04:45:11;99919.47;;;9.36;84.84
74613;BME280;63119;51.788;8.824;2024-02-14T04:47:36;99921.44;;;9.32;85.61
74613;BME280;63119;51.788;8.824;2024-02-14T04:50:02;99915.31;;;9.32;86.73
74613;BME280;63119;51.788;8.824;2024-02-14T04:52:29;99911.63;;;9.34;87.85
74613;BME280;63119;51.788;8.824;2024-02-14T04:54:54;99911.06;;;9.29;88.06
74613;BME280;63119;51.788;8.824;2024-02-14T04:57:21;99912.75;;;9.30;88.22
74613;BME280;63119;51.788;8.824;2024-02-14T04:59:46;99909.91;;;9.33;88.56
74613;BME280;63119;51.788;8.824;2024-02-14T05:02:11;99906.06;;;9.39;87.99
74613;BME280;63119;51.788;8.824;2024-02-14T05:04:36;99913.53;;;9.32;88.88
74613;BME280;63119;51.788;8.824;2024-02-14T05:07:03;99907.94;;;9.37;88.85
74613;BME280;63119;51.788;8.824;2024-02-14T05:09:29;99907.19;;;9.35;89.07
74613;BME280;63119;51.788;8.824;2024-02-14T05:11:54;99912.75;;;9.30;89.22
74613;BME280;63119;51.788;8.824;2024-02-14T05:14:19;99912.13;;;9.27;89.57
74613;BME280;63119;51.788;8.824;2024-02-14T05:16:45;99914.44;;;9.31;88.77
74613;BME280;63119;51.788;8.824;2024-02-14T05:19:10;99907.28;;;9.33;89.23
74613;BME280;63119;51.788;8.824;2024-02-14T05:21:35;99904.75;;;9.32;90.30
74613;BME280;63119;51.788;8.824;2024-02-14T05:24:01;99901.59;;;9.40;89.47
74613;BME280;63119;51.788;8.824;2024-02-14T05:26:26;99896.97;;;9.43;89.51
74613;BME280;63119;51.788;8.824;2024-02-14T05:28:51;99902.66;;;9.37;90.02
74613;BME280;63119;51.788;8.824;2024-02-14T05:31:17;99900.66;;;9.41;90.04
74613;BME280;63119;51.788;8.824;2024-02-14T05:33:42;99902.44;;;9.40;90.46
74613;BME280;63119;51.788;8.824;2024-02-14T05:36:08;99900.56;;;9.42;90.99
74613;BME280;63119;51.788;8.824;2024-02-14T05:38:33;99908.13;;;9.34;90.89
74613;BME280;63119;51.788;8.824;2024-02-14T05:40:59;99901.31;;;9.44;91.37
74613;BME280;63119;51.788;8.824;2024-02-14T05:43:25;99902.81;;;9.48;90.95
74613;BME280;63119;51.788;8.824;2024-02-14T05:45:50;99904.41;;;9.51;91.23
74613;BME280;63119;51.788;8.824;2024-02-14T05:48:16;99908.19;;;9.47;91.11
74613;BME280;63119;51.788;8.824;2024-02-14T05:50:41;99911.88;;;9.44;92.04
74613;BME280;63119;51.788;8.824;2024-02-14T05:53:06;99900.25;;;9.47;92.24
74613;BME280;63119;51.788;8.824;2024-02-14T05:55:31;99898.69;;;9.44;92.14
74613;BME280;63119;51.788;8.824;2024-02-14T05:57:57;99905.34;;;9.50;91.88
74613;BME280;63119;51.788;8.824;2024-02-14T06:00:24;99909.78;;;9.49;92.99
74613;BME280;63119;51.788;8.824;2024-02-14T06:02:50;99912.13;;;9.54;92.95
74613;BME280;63119;51.788;8.824;2024-02-14T06:05:15;99913.19;;;9.51;93.38
74613;BME280;63119;51.788;8.824;2024-02-14T06:07:41;99914.47;;;9.58;93.10
74613;BME280;63119;51.788;8.824;2024-02-14T06:10:07;99919.09;;;9.55;93.69
74613;BME280;63119;51.788;8.824;2024-02-14T06:12:33;99919.75;;;9.58;93.24
74613;BME280;63119;51.788;8.824;2024-02-14T06:14:59;99921.94;;;9.52;93.67
74613;BME280;63119;51.788;8.824;2024-02-14T06:17:24;99923.84;;;9.50;93.87
74613;BME280;63119;51.788;8.824;2024-02-14T06:19:51;99922.31;;;9.46;94.47
74613;BME280;63119;51.788;8.824;2024-02-14T06:22:16;99937.97;;;9.49;94.55
74613;BME280;63119;51.788;8.824;2024-02-14T06:24:41;99929.22;;;9.48;95.89
74613;BME280;63119;51.788;8.824;2024-02-14T06:27:07;99927.72;;;9.44;96.93
74613;BME280;63119;51.788;8.824;2024-02-14T06:29:32;99943.22;;;9.36;97.93
74613;BME280;63119;51.788;8.824;2024-02-14T06:31:57;99938.94;;;9.48;97.94
74613;BME280;63119;51.788;8.824;2024-02-14T06:34:22;99938.03;;;9.34;99.62
74613;BME280;63119;51.788;8.824;2024-02-14T06:36:48;99945.88;;;9.36;100.00
74613;BME280;63119;51.788;8.824;2024-02-14T06:39:13;99954.59;;;9.37;100.00
74613;BME280;63119;51.788;8.824;2024-02-14T06:41:38;99960.47;;;9.27;100.00
74613;BME280;63119;51.788;8.824;2024-02-14T06:44:05;99950.22;;;9.23;100.00
74613;BME280;63119;51.788;8.824;2024-02-14T06:46:30;99956.03;;;9.28;100.00
74613;BME280;63119;51.788;8.824;2024-02-14T06:48:55;99963.22;;;9.26;100.00
74613;BME280;63119;51.788;8.824;2024-02-14T06:51:21;99970.00;;;9.30;100.00
74613;BME280;63119;51.788;8.824;2024-02-14T06:53:47;99959.56;;;9.14;100.00
74613;BME280;63119;51.788;8.824;2024-02-14T06:56:12;99965.31;;;9.21;100.00
74613;BME280;63119;51.788;8.824;2024-02-14T06:58:38;99973.97;;;9.23;100.00
74613;BME280;63119;51.788;8.824;2024-02-14T07:01:03;99976.03;;;9.32;100.00
74613;BME280;63119;51.788;8.824;2024-02-14T07:03:28;99971.22;;;9.39;100.00
74613;BME280;63119;51.788;8.824;2024-02-14T07:05:53;99977.16;;;9.42;100.00
74613;BME280;63119;51.788;8.824;2024-02-14T07:08:19;99972.53;;;9.31;100.00
74613;BME280;63119;51.788;8.824;2024-02-14T07:10:44;99975.72;;;9.37;100.00
74613;BME280;63119;51.788;8.824;2024-02-14T07:13:10;99977.59;;;9.49;100.00
74613;BME280;63119;51.788;8.824;2024-02-14T07:15:35;99980.91;;;9.52;100.00
74613;BME280;63119;51.788;8.824;2024-02-14T07:18:00;99981.16;;;9.62;98.71
74613;BME280;63119;51.788;8.824;2024-02-14T07:20:25;99981.09;;;9.63;98.23
74613;BME280;63119;51.788;8.824;2024-02-14T07:22:55;99976.78;;;9.75;98.41
74613;BME280;63119;51.788;8.824;2024-02-14T07:25:21;99979.72;;;9.70;99.16
74613;BME280;63119;51.788;8.824;2024-02-14T07:27:47;99991.88;;;9.73;98.51
74613;BME280;63119;51.788;8.824;2024-02-14T07:30:15;99991.81;;;9.74;97.78
74613;BME280;63119;51.788;8.824;2024-02-14T07:32:40;99994.53;;;9.73;97.71
74613;BME280;63119;51.788;8.824;2024-02-14T07:35:06;99985.25;;;9.80;96.67
74613;BME280;63119;51.788;8.824;2024-02-14T07:37:31;99996.50;;;9.83;96.64
74613;BME280;63119;51.788;8.824;2024-02-14T07:39:57;99997.03;;;9.88;96.67
74613;BME280;63119;51.788;8.824;2024-02-14T07:42:22;99984.47;;;9.92;96.42
74613;BME280;63119;51.788;8.824;2024-02-14T07:44:48;99995.91;;;9.93;95.67
74613;BME280;63119;51.788;8.824;2024-02-14T07:47:13;99994.56;;;10.00;95.22
74613;BME280;63119;51.788;8.824;2024-02-14T07:49:39;99994.75;;;9.97;95.37
74613;BME280;63119;51.788;8.824;2024-02-14T07:52:05;99996.88;;;10.04;96.30
74613;BME280;63119;51.788;8.824;2024-02-14T07:54:30;99994.25;;;10.04;95.49
74613;BME280;63119;51.788;8.824;2024-02-14T07:56:55;100001.44;;;10.02;95.76
74613;BME280;63119;51.788;8.824;2024-02-14T07:59:21;99993.31;;;10.05;95.64
74613;BME280;63119;51.788;8.824;2024-02-14T08:01:46;100009.53;;;10.13;95.64
74613;BME280;63119;51.788;8.824;2024-02-14T08:04:11;100008.47;;;10.16;95.62
74613;BME280;63119;51.788;8.824;2024-02-14T08:06:36;100011.88;;;10.18;95.62
74613;BME280;63119;51.788;8.824;2024-02-14T08:09:02;100003.84;;;10.19;95.73
74613;BME280;63119;51.788;8.824;2024-02-14T08:11:31;100011.13;;;10.16;96.17
74613;BME280;63119;51.788;8.824;2024-02-14T08:13:56;100010.63;;;10.23;96.28
74613;BME280;63119;51.788;8.824;2024-02-14T08:16:22;100017.38;;;10.27;96.11
74613;BME280;63119;51.788;8.824;2024-02-14T08:18:47;100020.16;;;10.26;96.50
74613;BME280;63119;51.788;8.824;2024-02-14T08:21:13;100020.47;;;10.34;95.21
74613;BME280;63119;51.788;8.824;2024-02-14T08:23:38;100025.78;;;10.34;95.08
74613;BME280;63119;51.788;8.824;2024-02-14T08:26:05;100023.53;;;10.28;96.01
74613;BME280;63119;51.788;8.824;2024-02-14T08:28:38;100021.00;;;10.26;96.50
74613;BME280;63119;51.788;8.824;2024-02-14T08:31:09;100024.84;;;10.35;96.60
74613;BME280;63119;51.788;8.824;2024-02-14T08:33:34;100024.31;;;10.30;97.35
74613;BME280;63119;51.788;8.824;2024-02-14T08:36:00;100025.97;;;10.31;96.98
74613;BME280;63119;51.788;8.824;2024-02-14T08:38:25;100025.97;;;10.31;96.71
74613;BME280;63119;51.788;8.824;2024-02-14T08:40:53;100030.31;;;10.32;96.69
74613;BME280;63119;51.788;8.824;2024-02-14T08:43:18;100023.69;;;10.39;95.76
74613;BME280;63119;51.788;8.824;2024-02-14T08:45:43;100016.50;;;10.41;95.94
74613;BME280;63119;51.788;8.824;2024-02-14T08:48:09;100018.50;;;10.37;95.67
74613;BME280;63119;51.788;8.824;2024-02-14T08:50:34;100034.41;;;10.50;95.42
74613;BME280;63119;51.788;8.824;2024-02-14T08:53:00;100026.78;;;10.46;95.93
74613;BME280;63119;51.788;8.824;2024-02-14T08:55:26;100032.28;;;10.55;95.10
74613;BME280;63119;51.788;8.824;2024-02-14T08:57:51;100030.28;;;10.59;94.79
74613;BME280;63119;51.788;8.824;2024-02-14T09:00:16;100037.56;;;10.55;94.82
74613;BME280;63119;51.788;8.824;2024-02-14T09:02:47;100033.56;;;10.62;95.10
74613;BME280;63119;51.788;8.824;2024-02-14T09:05:13;100025.97;;;10.58;95.79
74613;BME280;63119;51.788;8.824;2024-02-14T09:07:38;100038.88;;;10.62;94.88
74613;BME280;63119;51.788;8.824;2024-02-14T09:10:04;100034.09;;;10.67;95.61
74613;BME280;63119;51.788;8.824;2024-02-14T09:12:31;100035.06;;;10.66;95.01
74613;BME280;63119;51.788;8.824;2024-02-14T09:14:57;100042.66;;;10.58;96.12
74613;BME280;63119;51.788;8.824;2024-02-14T09:17:22;100040.88;;;10.59;95.57
74613;BME280;63119;51.788;8.824;2024-02-14T09:19:47;100050.19;;;10.64;95.95
74613;BME280;63119;51.788;8.824;2024-02-14T09:22:13;100035.38;;;10.62;96.23
74613;BME280;63119;51.788;8.824;2024-02-14T09:24:43;100042.59;;;10.72;95.62
74613;BME280;63119;51.788;8.824;2024-02-14T09:27:08;100050.34;;;10.75;96.70
74613;BME280;63119;51.788;8.824;2024-02-14T09:29:34;100050.94;;;10.66;97.54
74613;BME280;63119;51.788;8.824;2024-02-14T09:32:01;100053.41;;;10.69;98.30
74613;BME280;63119;51.788;8.824;2024-02-14T09:34:27;100052.00;;;10.64;98.64
74613;BME280;63119;51.788;8.824;2024-02-14T09:36:52;100048.41;;;10.65;98.35
74613;BME280;63119;51.788;8.824;2024-02-14T09:39:18;100059.84;;;10.65;98.71
74613;BME280;63119;51.788;8.824;2024-02-14T09:41:44;100054.84;;;10.73;98.03
74613;BME280;63119;51.788;8.824;2024-02-14T09:44:12;100051.91;;;10.78;97.64
74613;BME280;63119;51.788;8.824;2024-02-14T09:46:38;100053.06;;;10.74;98.02
74613;BME280;63119;51.788;8.824;2024-02-14T09:49:04;100058.28;;;10.75;96.87
74613;BME280;63119;51.788;8.824;2024-02-14T09:51:31;100057.22;;;10.78;97.40
74613;BME280;63119;51.788;8.824;2024-02-14T09:53:56;100055.72;;;10.86;96.75
74613;BME280;63119;51.788;8.824;2024-02-14T09:56:24;100053.00;;;10.88;97.03
74613;BME280;63119;51.788;8.824;2024-02-14T09:58:50;100047.38;;;10.92;96.07
74613;BME280;63119;51.788;8.824;2024-02-14T10:01:21;100056.06;;;10.94;95.32
74613;BME280;63119;51.788;8.824;2024-02-14T10:03:49;100051.41;;;10.98;95.23
74613;BME280;63119;51.788;8.824;2024-02-14T10:06:14;100053.31;;;11.09;94.95
74613;BME280;63119;51.788;8.824;2024-02-14T10:08:40;100060.09;;;11.13;94.48
74613;BME280;63119;51.788;8.824;2024-02-14T10:11:05;100060.00;;;11.14;94.52
74613;BME280;63119;51.788;8.824;2024-02-14T10:13:31;100064.66;;;11.11;94.22
74613;BME280;63119;51.788;8.824;2024-02-14T10:15:57;100071.22;;;11.18;94.28
74613;BME280;63119;51.788;8.824;2024-02-14T10:18:22;100061.16;;;11.23;93.73
74613;BME280;63119;51.788;8.824;2024-02-14T10:20:57;100068.25;;;11.22;93.64
74613;BME280;63119;51.788;8.824;2024-02-14T10:23:22;100068.78;;;11.27;93.82
74613;BME280;63119;51.788;8.824;2024-02-14T10:25:52;100062.31;;;11.31;93.58
74613;BME280;63119;51.788;8.824;2024-02-14T10:28:18;100069.84;;;11.25;93.39
74613;BME280;63119;51.788;8.824;2024-02-14T10:30:45;100081.91;;;11.29;93.85
74613;BME280;63119;51.788;8.824;2024-02-14T10:33:11;100078.84;;;11.35;93.71
74613;BME280;63119;51.788;8.824;2024-02-14T10:35:37;100079.78;;;11.34;93.60
74613;BME280;63119;51.788;8.824;2024-02-14T10:38:03;100076.31;;;11.33;93.57
74613;BME280;63119;51.788;8.824;2024-02-14T10:40:32;100078.63;;;11.38;93.93
74613;BME280;63119;51.788;8.824;2024-02-14T10:42:57;100082.56;;;11.45;93.31
74613;BME280;63119;51.788;8.824;2024-02-14T10:45:24;100079.16;;;11.43;93.07
74613;BME280;63119;51.788;8.824;2024-02-14T10:47:51;100087.84;;;11.45;93.37
74613;BME280;63119;51.788;8.824;2024-02-14T10:50:21;100092.59;;;11.52;92.72
74613;BME280;63119;51.788;8.824;2024-02-14T10:52:48;100092.72;;;11.51;93.23
74613;BME280;63119;51.788;8.824;2024-02-14T10:55:15;100097.19;;;11.50;93.64
74613;BME280;63119;51.788;8.824;2024-02-14T10:57:45;100092.72;;;11.51;94.18
74613;BME280;63119;51.788;8.824;2024-02-14T11:00:12;100098.47;;;11.45;94.86
74613;BME280;63119;51.788;8.824;2024-02-14T11:02:39;100096.03;;;11.42;95.60
74613;BME280;63119;51.788;8.824;2024-02-14T11:05:05;100090.16;;;11.37;95.32
74613;BME280;63119;51.788;8.824;2024-02-14T11:07:32;100097.91;;;11.40;95.83
74613;BME280;63119;51.788;8.824;2024-02-14T11:10:16;100093.16;;;11.32;96.75
74613;BME280;63119;51.788;8.824;2024-02-14T11:12:42;100089.22;;;11.38;96.74
74613;BME280;63119;51.788;8.824;2024-02-14T11:15:20;100094.84;;;11.46;97.34
74613;BME280;63119;51.788;8.824;2024-02-14T11:17:46;100093.47;;;11.53;97.82
74613;BME280;63119;51.788;8.824;2024-02-14T11:20:18;100090.09;;;11.51;98.83
74613;BME280;63119;51.788;8.824;2024-02-14T11:22:53;100088.38;;;11.50;97.23
74613;BME280;63119;51.788;8.824;2024-02-14T11:25:22;100089.97;;;11.52;96.16
74613;BME280;63119;51.788;8.824;2024-02-14T11:27:47;100094.00;;;11.45;96.31
74613;BME280;63119;51.788;8.824;2024-02-14T11:30:14;100088.50;;;11.48;96.26
74613;BME280;63119;51.788;8.824;2024-02-14T11:32:40;100083.59;;;11.55;94.91
74613;BME280;63119;51.788;8.824;2024-02-14T11:35:11;100088.88;;;11.55;95.48
74613;BME280;63119;51.788;8.824;2024-02-14T11:37:36;100084.34;;;11.57;96.27
74613;BME280;63119;51.788;8.824;2024-02-14T11:40:01;100093.88;;;11.60;97.78
74613;BME280;63119;51.788;8.824;2024-02-14T11:42:27;100088.16;;;11.40;99.79
74613;BME280;63119;51.788;8.824;2024-02-14T11:44:52;100088.81;;;11.44;100.00
74613;BME280;63119;51.788;8.824;2024-02-14T11:47:19;100082.00;;;11.40;100.00
74613;BME280;63119;51.788;8.824;2024-02-14T11:49:44;100090.16;;;11.49;99.23
74613;BME280;63119;51.788;8.824;2024-02-14T11:52:14;100086.06;;;11.45;99.37
74613;BME280;63119;51.788;8.824;2024-02-14T11:54:39;100090.28;;;11.48;98.98
74613;BME280;63119;51.788;8.824;2024-02-14T11:57:05;100091.38;;;11.45;99.18
74613;BME280;63119;51.788;8.824;2024-02-14T11:59:34;100095.59;;;11.48;99.37
74613;BME280;63119;51.788;8.824;2024-02-14T12:01:59;100092.50;;;11.29;100.00
74613;BME280;63119;51.788;8.824;2024-02-14T12:04:25;100096.75;;;11.31;100.00
74613;BME280;63119;51.788;8.824;2024-02-14T12:06:50;100098.44;;;11.20;100.00
74613;BME280;63119;51.788;8.824;2024-02-14T12:09:16;100104.16;;;11.14;100.00
74613;BME280;63119;51.788;8.824;2024-02-14T12:11:42;100108.31;;;11.18;100.00
74613;BME280;63119;51.788;8.824;2024-02-14T12:14:11;100114.53;;;11.17;100.00
74613;BME280;63119;51.788;8.824;2024-02-14T12:16:37;100116.66;;;11.12;100.00
74613;BME280;63119;51.788;8.824;2024-02-14T12:19:09;100114.53;;;11.17;100.00
74613;BME280;63119;51.788;8.824;2024-02-14T12:21:39;100112.22;;;11.25;100.00
74613;BME280;63119;51.788;8.824;2024-02-14T12:24:07;100113.06;;;11.25;100.00
74613;BME280;63119;51.788;8.824;2024-02-14T12:26:33;100109.25;;;11.29;100.00
74613;BME280;63119;51.788;8.824;2024-02-14T12:29:01;100112.41;;;11.22;100.00
74613;BME280;63119;51.788;8.824;2024-02-14T12:31:27;100108.94;;;11.21;100.00
74613;BME280;63119;51.788;8.824;2024-02-14T12:33:52;100109.13;;;11.31;100.00
74613;BME280;63119;51.788;8.824;2024-02-14T12:36:20;100105.75;;;11.29;100.00
74613;BME280;63119;51.788;8.824;2024-02-14T12:38:45;100104.19;;;11.26;100.00
74613;BME280;63119;51.788;8.824;2024-02-14T12:41:10;100112.75;;;11.30;100.00
74613;BME280;63119;51.788;8.824;2024-02-14T12:43:36;100107.88;;;11.24;100.00
74613;BME280;63119;51.788;8.824;2024-02-14T12:46:01;100118.06;;;11.30;100.00
74613;BME280;63119;51.788;8.824;2024-02-14T12:48:26;100114.78;;;11.26;100.00
74613;BME280;63119;51.788;8.824;2024-02-14T12:50:53;100113.50;;;11.32;100.00
74613;BME280;63119;51.788;8.824;2024-02-14T12:53:18;100113.50;;;11.32;100.00